sensor_id;sensor_type;location;lat;lon;timestamp;temperature;humidity
18948;DHT22;9607;51.600;7.558;2022-07-15T00:01:24;14.50;99.90
18948;DHT22;9607;51.600;7.558;2022-07-15T00:03:51;14.50;99.90
18948;DHT22;9607;51.600;7.558;2022-07-15T00:06:17;14.40;99.90
18948;DHT22;9607;51.600;7.558;2022-07-15T00:08:45;14.50;99.90
18948;DHT22;9607;51.600;7.558;2022-07-15T00:11:12;14.40;99.90
18948;DHT22;9607;51.600;7.558;2022-07-15T00:13:39;14.40;99.90
18948;DHT22;9607;51.600;7.558;2022-07-15T00:16:08;14.40;99.90
18948;DHT22;9607;51.600;7.558;2022-07-15T00:18:35;14.30;99.90
18948;DHT22;9607;51.600;7.558;2022-07-15T00:21:01;14.30;99.90
18948;DHT22;9607;51.600;7.558;2022-07-15T00:23:29;14.40;99.90
18948;DHT22;9607;51.600;7.558;2022-07-15T00:25:56;14.40;99.90
18948;DHT22;9607;51.600;7.558;2022-07-15T00:28:32;14.50;99.90
18948;DHT22;9607;51.600;7.558;2022-07-15T00:31:06;14.40;99.90
18948;DHT22;9607;51.600;7.558;2022-07-15T00:33:34;14.50;99.90
18948;DHT22;9607;51.600;7.558;2022-07-15T00:36:01;14.50;99.90
18948;DHT22;9607;51.600;7.558;2022-07-15T00:38:27;14.50;99.90
18948;DHT22;9607;51.600;7.558;2022-07-15T00:40:54;14.50;99.90
18948;DHT22;9607;51.600;7.558;2022-07-15T00:43:21;14.50;99.90
18948;DHT22;9607;51.600;7.558;2022-07-15T00:45:50;14.50;99.90
18948;DHT22;9607;51.600;7.558;2022-07-15T00:48:18;14.50;99.90
18948;DHT22;9607;51.600;7.558;2022-07-15T00:50:47;14.60;99.90
18948;DHT22;9607;51.600;7.558;2022-07-15T00:53:17;14.60;99.90
18948;DHT22;9607;51.600;7.558;2022-07-15T00:55:45;14.60;99.90
18948;DHT22;9607;51.600;7.558;2022-07-15T00:58:16;14.60;99.90
18948;DHT22;9607;51.600;7.558;2022-07-15T01:00:45;14.60;99.90
18948;DHT22;9607;51.600;7.558;2022-07-15T01:03:13;14.60;99.90
18948;DHT22;9607;51.600;7.558;2022-07-15T01:05:41;14.70;99.90
18948;DHT22;9607;51.600;7.558;2022-07-15T01:08:10;14.70;99.90
18948;DHT22;9607;51.600;7.558;2022-07-15T01:10:37;14.70;99.90
18948;DHT22;9607;51.600;7.558;2022-07-15T01:13:07;14.70;99.90
18948;DHT22;9607;51.600;7.558;2022-07-15T01:15:35;14.70;99.90
18948;DHT22;9607;51.600;7.558;2022-07-15T01:18:03;14.70;99.90
18948;DHT22;9607;51.600;7.558;2022-07-15T01:20:30;14.70;99.90
18948;DHT22;9607;51.600;7.558;2022-07-15T01:22:59;14.70;99.90
18948;DHT22;9607;51.600;7.558;2022-07-15T01:25:28;14.70;99.90
18948;DHT22;9607;51.600;7.558;2022-07-15T01:27:56;14.70;99.90
18948;DHT22;9607;51.600;7.558;2022-07-15T01:30:23;14.70;99.90
18948;DHT22;9607;51.600;7.558;2022-07-15T01:32:52;14.70;99.90
18948;DHT22;9607;51.600;7.558;2022-07-15T01:35:20;14.70;99.90
18948;DHT22;9607;51.600;7.558;2022-07-15T01:37:47;14.70;99.90
18948;DHT22;9607;51.600;7.558;2022-07-15T01:40:15;14.70;99.90
18948;DHT22;9607;51.600;7.558;2022-07-15T01:42:42;14.70;99.90
18948;DHT22;9607;51.600;7.558;2022-07-15T01:45:10;14.70;99.90
18948;DHT22;9607;51.600;7.558;2022-07-15T01:47:41;14.70;99.90
18948;DHT22;9607;51.600;7.558;2022-07-15T01:50:09;14.70;99.90
18948;DHT22;9607;51.600;7.558;2022-07-15T01:52:35;14.60;99.90
18948;DHT22;9607;51.600;7.558;2022-07-15T01:55:02;14.70;99.90
18948;DHT22;9607;51.600;7.558;2022-07-15T01:57:37;14.70;99.90
18948;DHT22;9607;51.600;7.558;2022-07-15T02:00:05;14.70;99.90
18948;DHT22;9607;51.600;7.558;2022-07-15T02:02:35;14.60;99.90
18948;DHT22;9607;51.600;7.558;2022-07-15T02:05:03;14.60;99.90
18948;DHT22;9607;51.600;7.558;2022-07-15T02:07:31;14.60;99.90
18948;DHT22;9607;51.600;7.558;2022-07-15T02:10:00;14.60;99.90
18948;DHT22;9607;51.600;7.558;2022-07-15T02:12:27;14.60;99.90
18948;DHT22;9607;51.600;7.558;2022-07-15T02:14:55;14.60;99.90
18948;DHT22;9607;51.600;7.558;2022-07-15T02:17:22;14.60;99.90
18948;DHT22;9607;51.600;7.558;2022-07-15T02:19:49;14.60;99.90
18948;DHT22;9607;51.600;7.558;2022-07-15T02:22:16;14.50;99.90
18948;DHT22;9607;51.600;7.558;2022-07-15T02:24:43;14.40;99.90
18948;DHT22;9607;51.600;7.558;2022-07-15T02:27:09;14.40;99.90
18948;DHT22;9607;51.600;7.558;2022-07-15T02:29:36;14.30;99.90
18948;DHT22;9607;51.600;7.558;2022-07-15T02:32:05;14.20;99.90
18948;DHT22;9607;51.600;7.558;2022-07-15T02:34:32;14.10;99.90
18948;DHT22;9607;51.600;7.558;2022-07-15T02:37:02;14.00;99.90
18948;DHT22;9607;51.600;7.558;2022-07-15T02:39:29;13.90;99.90
18948;DHT22;9607;51.600;7.558;2022-07-15T02:41:56;13.80;99.90
18948;DHT22;9607;51.600;7.558;2022-07-15T02:44:24;13.70;99.90
18948;DHT22;9607;51.600;7.558;2022-07-15T02:46:50;13.60;99.90
18948;DHT22;9607;51.600;7.558;2022-07-15T02:49:19;13.50;99.90
18948;DHT22;9607;51.600;7.558;2022-07-15T02:51:46;13.50;99.90
18948;DHT22;9607;51.600;7.558;2022-07-15T02:54:13;13.40;99.90
18948;DHT22;9607;51.600;7.558;2022-07-15T02:56:39;13.30;99.90
18948;DHT22;9607;51.600;7.558;2022-07-15T02:59:06;13.20;99.90
18948;DHT22;9607;51.600;7.558;2022-07-15T03:01:34;13.20;99.90
18948;DHT22;9607;51.600;7.558;2022-07-15T03:04:02;13.10;99.90
18948;DHT22;9607;51.600;7.558;2022-07-15T03:06:31;13.00;99.90
18948;DHT22;9607;51.600;7.558;2022-07-15T03:09:00;13.00;99.90
18948;DHT22;9607;51.600;7.558;2022-07-15T03:11:27;12.90;99.90
18948;DHT22;9607;51.600;7.558;2022-07-15T03:13:54;12.90;99.90
18948;DHT22;9607;51.600;7.558;2022-07-15T03:16:22;12.80;99.90
18948;DHT22;9607;51.600;7.558;2022-07-15T03:18:49;12.80;99.90
18948;DHT22;9607;51.600;7.558;2022-07-15T03:21:16;12.80;99.90
18948;DHT22;9607;51.600;7.558;2022-07-15T03:23:44;12.70;99.90
18948;DHT22;9607;51.600;7.558;2022-07-15T03:26:11;12.70;99.90
18948;DHT22;9607;51.600;7.558;2022-07-15T03:28:38;12.70;99.90
18948;DHT22;9607;51.600;7.558;2022-07-15T03:31:07;12.60;99.90
18948;DHT22;9607;51.600;7.558;2022-07-15T03:33:34;12.60;99.90
18948;DHT22;9607;51.600;7.558;2022-07-15T03:36:01;12.60;99.90
18948;DHT22;9607;51.600;7.558;2022-07-15T03:38:31;12.50;99.90
18948;DHT22;9607;51.600;7.558;2022-07-15T03:40:59;12.50;99.90
18948;DHT22;9607;51.600;7.558;2022-07-15T03:43:26;12.50;99.90
18948;DHT22;9607;51.600;7.558;2022-07-15T03:45:55;12.50;99.90
18948;DHT22;9607;51.600;7.558;2022-07-15T03:48:22;12.50;99.90
18948;DHT22;9607;51.600;7.558;2022-07-15T03:50:49;12.50;99.90
18948;DHT22;9607;51.600;7.558;2022-07-15T03:53:16;12.40;99.90
18948;DHT22;9607;51.600;7.558;2022-07-15T03:55:42;12.40;99.90
18948;DHT22;9607;51.600;7.558;2022-07-15T03:58:10;12.40;99.90
18948;DHT22;9607;51.600;7.558;2022-07-15T04:00:37;12.30;99.90
18948;DHT22;9607;51.600;7.558;2022-07-15T04:03:07;12.30;99.90
18948;DHT22;9607;51.600;7.558;2022-07-15T04:05:34;12.30;99.90
18948;DHT22;9607;51.600;7.558;2022-07-15T04:08:02;12.30;99.90
18948;DHT22;9607;51.600;7.558;2022-07-15T04:10:29;12.20;99.90
18948;DHT22;9607;51.600;7.558;2022-07-15T04:12:56;12.30;99.90
18948;DHT22;9607;51.600;7.558;2022-07-15T04:15:25;12.20;99.90
18948;DHT22;9607;51.600;7.558;2022-07-15T04:20:32;12.20;99.90
18948;DHT22;9607;51.600;7.558;2022-07-15T04:22:59;12.30;99.90
18948;DHT22;9607;51.600;7.558;2022-07-15T04:25:25;12.30;99.90
18948;DHT22;9607;51.600;7.558;2022-07-15T04:27:55;12.30;99.90
18948;DHT22;9607;51.600;7.558;2022-07-15T04:30:24;12.30;99.90
18948;DHT22;9607;51.600;7.558;2022-07-15T04:32:51;12.40;99.90
18948;DHT22;9607;51.600;7.558;2022-07-15T04:35:24;12.40;99.90
18948;DHT22;9607;51.600;7.558;2022-07-15T04:37:51;12.40;99.90
18948;DHT22;9607;51.600;7.558;2022-07-15T04:40:18;12.40;99.90
18948;DHT22;9607;51.600;7.558;2022-07-15T04:42:45;12.50;99.90
18948;DHT22;9607;51.600;7.558;2022-07-15T04:45:12;12.50;99.90
18948;DHT22;9607;51.600;7.558;2022-07-15T04:47:40;12.50;99.90
18948;DHT22;9607;51.600;7.558;2022-07-15T04:50:08;12.60;99.90
18948;DHT22;9607;51.600;7.558;2022-07-15T04:52:53;12.60;99.90
18948;DHT22;9607;51.600;7.558;2022-07-15T04:55:20;12.60;99.90
18948;DHT22;9607;51.600;7.558;2022-07-15T04:57:51;12.70;99.90
18948;DHT22;9607;51.600;7.558;2022-07-15T05:00:18;12.70;99.90
18948;DHT22;9607;51.600;7.558;2022-07-15T05:02:48;12.80;99.90
18948;DHT22;9607;51.600;7.558;2022-07-15T05:05:15;12.80;99.90
18948;DHT22;9607;51.600;7.558;2022-07-15T05:07:43;12.90;99.90
18948;DHT22;9607;51.600;7.558;2022-07-15T05:10:14;12.90;99.90
18948;DHT22;9607;51.600;7.558;2022-07-15T05:15:40;13.10;99.90
18948;DHT22;9607;51.600;7.558;2022-07-15T05:18:09;13.10;99.90
18948;DHT22;9607;51.600;7.558;2022-07-15T05:23:38;13.30;99.90
18948;DHT22;9607;51.600;7.558;2022-07-15T05:26:07;13.30;99.90
18948;DHT22;9607;51.600;7.558;2022-07-15T05:28:47;13.40;99.90
18948;DHT22;9607;51.600;7.558;2022-07-15T05:31:28;13.40;99.90
18948;DHT22;9607;51.600;7.558;2022-07-15T05:33:56;13.50;99.90
18948;DHT22;9607;51.600;7.558;2022-07-15T05:36:51;13.60;99.90
18948;DHT22;9607;51.600;7.558;2022-07-15T05:39:22;13.60;99.90
18948;DHT22;9607;51.600;7.558;2022-07-15T05:44:21;13.80;99.90
18948;DHT22;9607;51.600;7.558;2022-07-15T05:46:48;14.00;99.90
18948;DHT22;9607;51.600;7.558;2022-07-15T05:49:18;14.20;99.90
18948;DHT22;9607;51.600;7.558;2022-07-15T05:51:45;14.40;99.90
18948;DHT22;9607;51.600;7.558;2022-07-15T05:54:12;14.50;99.90
18948;DHT22;9607;51.600;7.558;2022-07-15T05:56:42;14.70;99.90
18948;DHT22;9607;51.600;7.558;2022-07-15T05:59:20;14.90;99.90
18948;DHT22;9607;51.600;7.558;2022-07-15T06:02:12;15.00;99.90
18948;DHT22;9607;51.600;7.558;2022-07-15T06:04:41;15.10;99.90
18948;DHT22;9607;51.600;7.558;2022-07-15T06:07:10;15.20;99.90
18948;DHT22;9607;51.600;7.558;2022-07-15T06:09:39;15.30;99.90
18948;DHT22;9607;51.600;7.558;2022-07-15T06:12:12;15.30;99.90
18948;DHT22;9607;51.600;7.558;2022-07-15T06:14:39;15.40;99.90
18948;DHT22;9607;51.600;7.558;2022-07-15T06:17:11;15.40;99.90
18948;DHT22;9607;51.600;7.558;2022-07-15T06:29:09;15.60;99.90
18948;DHT22;9607;51.600;7.558;2022-07-15T06:31:56;15.70;99.90
18948;DHT22;9607;51.600;7.558;2022-07-15T06:34:23;15.80;99.90
18948;DHT22;9607;51.600;7.558;2022-07-15T06:40:45;15.90;99.90
18948;DHT22;9607;51.600;7.558;2022-07-15T06:43:36;15.90;99.90
18948;DHT22;9607;51.600;7.558;2022-07-15T06:46:05;15.90;99.90
18948;DHT22;9607;51.600;7.558;2022-07-15T06:48:36;15.90;99.90
18948;DHT22;9607;51.600;7.558;2022-07-15T06:51:04;16.00;99.90
18948;DHT22;9607;51.600;7.558;2022-07-15T06:53:36;16.00;99.90
18948;DHT22;9607;51.600;7.558;2022-07-15T06:56:25;16.20;99.90
18948;DHT22;9607;51.600;7.558;2022-07-15T06:58:55;16.50;99.90
18948;DHT22;9607;51.600;7.558;2022-07-15T07:01:24;16.70;99.90
18948;DHT22;9607;51.600;7.558;2022-07-15T07:03:54;16.90;99.90
18948;DHT22;9607;51.600;7.558;2022-07-15T07:06:22;17.10;99.90
18948;DHT22;9607;51.600;7.558;2022-07-15T07:08:59;17.20;99.90
18948;DHT22;9607;51.600;7.558;2022-07-15T07:11:26;17.20;99.90
18948;DHT22;9607;51.600;7.558;2022-07-15T07:13:56;17.20;99.90
18948;DHT22;9607;51.600;7.558;2022-07-15T07:16:43;17.30;99.90
18948;DHT22;9607;51.600;7.558;2022-07-15T07:19:11;17.40;99.90
18948;DHT22;9607;51.600;7.558;2022-07-15T07:21:38;17.50;99.90
18948;DHT22;9607;51.600;7.558;2022-07-15T07:24:15;17.40;99.90
18948;DHT22;9607;51.600;7.558;2022-07-15T07:26:47;17.40;99.90
18948;DHT22;9607;51.600;7.558;2022-07-15T07:29:45;17.60;99.90
18948;DHT22;9607;51.600;7.558;2022-07-15T07:32:22;17.60;99.90
18948;DHT22;9607;51.600;7.558;2022-07-15T07:35:06;17.80;99.90
18948;DHT22;9607;51.600;7.558;2022-07-15T07:38:07;17.90;99.90
18948;DHT22;9607;51.600;7.558;2022-07-15T07:40:47;18.20;99.90
18948;DHT22;9607;51.600;7.558;2022-07-15T07:43:36;18.40;99.90
18948;DHT22;9607;51.600;7.558;2022-07-15T07:46:36;18.60;99.90
18948;DHT22;9607;51.600;7.558;2022-07-15T07:52:08;18.70;99.50
18948;DHT22;9607;51.600;7.558;2022-07-15T07:54:46;18.80;99.30
18948;DHT22;9607;51.600;7.558;2022-07-15T07:57:16;18.80;98.10
18948;DHT22;9607;51.600;7.558;2022-07-15T08:00:08;18.80;98.10
18948;DHT22;9607;51.600;7.558;2022-07-15T08:02:35;18.70;98.50
18948;DHT22;9607;51.600;7.558;2022-07-15T08:05:14;18.80;98.70
18948;DHT22;9607;51.600;7.558;2022-07-15T08:08:09;19.00;98.70
18948;DHT22;9607;51.600;7.558;2022-07-15T08:10:36;19.10;97.20
18948;DHT22;9607;51.600;7.558;2022-07-15T08:13:03;19.20;97.10
18948;DHT22;9607;51.600;7.558;2022-07-15T08:18:25;19.20;97.30
18948;DHT22;9607;51.600;7.558;2022-07-15T08:23:54;19.70;96.50
18948;DHT22;9607;51.600;7.558;2022-07-15T08:26:36;19.90;93.40
18948;DHT22;9607;51.600;7.558;2022-07-15T08:32:18;20.00;93.10
18948;DHT22;9607;51.600;7.558;2022-07-15T08:37:24;20.20;91.40
18948;DHT22;9607;51.600;7.558;2022-07-15T08:39:59;20.20;90.40
18948;DHT22;9607;51.600;7.558;2022-07-15T08:42:29;20.20;89.30
18948;DHT22;9607;51.600;7.558;2022-07-15T08:47:55;20.20;90.50
18948;DHT22;9607;51.600;7.558;2022-07-15T08:50:34;19.90;90.90
18948;DHT22;9607;51.600;7.558;2022-07-15T08:53:07;19.70;91.80
18948;DHT22;9607;51.600;7.558;2022-07-15T08:59:02;19.70;92.90
18948;DHT22;9607;51.600;7.558;2022-07-15T09:01:40;19.90;91.50
18948;DHT22;9607;51.600;7.558;2022-07-15T09:04:08;19.80;89.50
18948;DHT22;9607;51.600;7.558;2022-07-15T09:06:37;19.90;89.70
18948;DHT22;9607;51.600;7.558;2022-07-15T09:09:25;19.90;89.80
18948;DHT22;9607;51.600;7.558;2022-07-15T09:14:26;19.40;90.60
18948;DHT22;9607;51.600;7.558;2022-07-15T09:17:06;19.30;91.70
18948;DHT22;9607;51.600;7.558;2022-07-15T09:22:51;19.40;92.00
18948;DHT22;9607;51.600;7.558;2022-07-15T09:25:27;19.50;91.70
18948;DHT22;9607;51.600;7.558;2022-07-15T09:28:05;19.40;90.00
18948;DHT22;9607;51.600;7.558;2022-07-15T09:30:35;19.40;89.60
18948;DHT22;9607;51.600;7.558;2022-07-15T09:33:25;19.50;89.60
18948;DHT22;9607;51.600;7.558;2022-07-15T09:36:11;19.80;90.00
18948;DHT22;9607;51.600;7.558;2022-07-15T09:41:03;20.70;86.80
18948;DHT22;9607;51.600;7.558;2022-07-15T09:43:30;21.10;83.80
18948;DHT22;9607;51.600;7.558;2022-07-15T09:46:09;21.40;80.60
18948;DHT22;9607;51.600;7.558;2022-07-15T09:48:40;21.50;78.50
18948;DHT22;9607;51.600;7.558;2022-07-15T09:51:07;21.50;78.30
18948;DHT22;9607;51.600;7.558;2022-07-15T09:53:34;21.50;76.50
18948;DHT22;9607;51.600;7.558;2022-07-15T09:56:08;21.50;75.90
18948;DHT22;9607;51.600;7.558;2022-07-15T09:58:38;21.40;74.40
18948;DHT22;9607;51.600;7.558;2022-07-15T10:01:06;21.50;75.10
18948;DHT22;9607;51.600;7.558;2022-07-15T10:03:36;21.60;74.20
18948;DHT22;9607;51.600;7.558;2022-07-15T10:06:04;21.50;72.30
18948;DHT22;9607;51.600;7.558;2022-07-15T10:08:38;21.50;72.90
18948;DHT22;9607;51.600;7.558;2022-07-15T10:14:36;21.30;73.60
18948;DHT22;9607;51.600;7.558;2022-07-15T10:22:15;20.90;74.10
18948;DHT22;9607;51.600;7.558;2022-07-15T10:25:23;20.90;74.80
18948;DHT22;9607;51.600;7.558;2022-07-15T10:28:01;21.20;74.40
18948;DHT22;9607;51.600;7.558;2022-07-15T10:30:30;21.50;71.30
18948;DHT22;9607;51.600;7.558;2022-07-15T10:33:08;21.80;70.20
18948;DHT22;9607;51.600;7.558;2022-07-15T10:35:40;22.00;68.50
18948;DHT22;9607;51.600;7.558;2022-07-15T10:38:31;21.80;62.10
18948;DHT22;9607;51.600;7.558;2022-07-15T10:41:08;21.40;64.50
18948;DHT22;9607;51.600;7.558;2022-07-15T10:43:46;21.10;69.30
18948;DHT22;9607;51.600;7.558;2022-07-15T10:46:25;21.00;71.30
18948;DHT22;9607;51.600;7.558;2022-07-15T10:49:28;21.20;71.60
18948;DHT22;9607;51.600;7.558;2022-07-15T10:52:12;21.50;71.70
18948;DHT22;9607;51.600;7.558;2022-07-15T10:55:03;21.40;68.30
18948;DHT22;9607;51.600;7.558;2022-07-15T10:57:50;21.20;68.20
18948;DHT22;9607;51.600;7.558;2022-07-15T11:00:33;20.90;66.30
18948;DHT22;9607;51.600;7.558;2022-07-15T11:03:05;20.80;67.90
18948;DHT22;9607;51.600;7.558;2022-07-15T11:05:33;20.70;69.30
18948;DHT22;9607;51.600;7.558;2022-07-15T11:19:59;21.00;73.20
18948;DHT22;9607;51.600;7.558;2022-07-15T11:22:28;21.30;74.90
18948;DHT22;9607;51.600;7.558;2022-07-15T11:24:56;21.60;72.40
18948;DHT22;9607;51.600;7.558;2022-07-15T11:27:24;21.80;69.10
18948;DHT22;9607;51.600;7.558;2022-07-15T11:29:54;22.00;67.10
18948;DHT22;9607;51.600;7.558;2022-07-15T11:32:25;21.90;67.20
18948;DHT22;9607;51.600;7.558;2022-07-15T11:34:54;22.00;67.20
18948;DHT22;9607;51.600;7.558;2022-07-15T11:37:25;22.10;64.50
18948;DHT22;9607;51.600;7.558;2022-07-15T11:40:07;22.30;63.20
18948;DHT22;9607;51.600;7.558;2022-07-15T11:42:35;22.30;63.10
18948;DHT22;9607;51.600;7.558;2022-07-15T11:45:32;22.30;62.50
18948;DHT22;9607;51.600;7.558;2022-07-15T11:47:59;22.30;62.90
18948;DHT22;9607;51.600;7.558;2022-07-15T11:50:26;22.20;62.70
18948;DHT22;9607;51.600;7.558;2022-07-15T11:52:56;22.20;61.40
18948;DHT22;9607;51.600;7.558;2022-07-15T11:55:24;22.30;60.70
18948;DHT22;9607;51.600;7.558;2022-07-15T11:57:51;22.30;61.30
18948;DHT22;9607;51.600;7.558;2022-07-15T12:00:18;22.60;60.80
18948;DHT22;9607;51.600;7.558;2022-07-15T12:03:05;23.00;60.20
18948;DHT22;9607;51.600;7.558;2022-07-15T12:05:32;23.50;58.10
18948;DHT22;9607;51.600;7.558;2022-07-15T12:08:00;23.60;56.40
18948;DHT22;9607;51.600;7.558;2022-07-15T12:10:34;23.60;57.00
18948;DHT22;9607;51.600;7.558;2022-07-15T12:13:01;23.70;57.00
18948;DHT22;9607;51.600;7.558;2022-07-15T12:15:30;23.80;56.40
18948;DHT22;9607;51.600;7.558;2022-07-15T12:17:57;23.90;56.80
18948;DHT22;9607;51.600;7.558;2022-07-15T12:20:24;24.00;56.80
18948;DHT22;9607;51.600;7.558;2022-07-15T12:23:03;24.00;55.80
18948;DHT22;9607;51.600;7.558;2022-07-15T12:25:31;23.90;55.20
18948;DHT22;9607;51.600;7.558;2022-07-15T12:27:57;24.10;54.80
18948;DHT22;9607;51.600;7.558;2022-07-15T12:30:31;24.50;53.60
18948;DHT22;9607;51.600;7.558;2022-07-15T12:33:13;24.70;53.10
18948;DHT22;9607;51.600;7.558;2022-07-15T12:35:40;25.30;53.60
18948;DHT22;9607;51.600;7.558;2022-07-15T12:38:08;25.60;51.50
18948;DHT22;9607;51.600;7.558;2022-07-15T12:40:35;25.70;49.80
18948;DHT22;9607;51.600;7.558;2022-07-15T12:43:02;25.50;49.40
18948;DHT22;9607;51.600;7.558;2022-07-15T12:45:36;25.50;49.90
18948;DHT22;9607;51.600;7.558;2022-07-15T12:48:05;25.30;49.10
18948;DHT22;9607;51.600;7.558;2022-07-15T12:50:34;25.00;49.90
18948;DHT22;9607;51.600;7.558;2022-07-15T12:53:01;25.30;50.20
18948;DHT22;9607;51.600;7.558;2022-07-15T12:55:32;26.30;48.20
18948;DHT22;9607;51.600;7.558;2022-07-15T12:58:03;27.70;46.60
18948;DHT22;9607;51.600;7.558;2022-07-15T13:00:30;29.20;43.10
18948;DHT22;9607;51.600;7.558;2022-07-15T13:03:00;29.40;41.40
18948;DHT22;9607;51.600;7.558;2022-07-15T13:05:29;29.40;41.00
18948;DHT22;9607;51.600;7.558;2022-07-15T13:07:56;29.90;40.80
18948;DHT22;9607;51.600;7.558;2022-07-15T13:10:23;29.80;40.40
18948;DHT22;9607;51.600;7.558;2022-07-15T13:12:51;29.80;40.40
18948;DHT22;9607;51.600;7.558;2022-07-15T13:15:18;30.30;39.70
18948;DHT22;9607;51.600;7.558;2022-07-15T13:17:45;30.70;40.10
18948;DHT22;9607;51.600;7.558;2022-07-15T13:20:12;31.70;38.90
18948;DHT22;9607;51.600;7.558;2022-07-15T13:22:39;32.80;37.40
18948;DHT22;9607;51.600;7.558;2022-07-15T13:25:07;33.60;35.60
18948;DHT22;9607;51.600;7.558;2022-07-15T13:27:35;34.00;34.30
18948;DHT22;9607;51.600;7.558;2022-07-15T13:30:05;33.70;33.10
18948;DHT22;9607;51.600;7.558;2022-07-15T13:32:32;33.30;33.70
18948;DHT22;9607;51.600;7.558;2022-07-15T13:34:59;32.80;34.10
18948;DHT22;9607;51.600;7.558;2022-07-15T13:37:26;32.00;35.30
18948;DHT22;9607;51.600;7.558;2022-07-15T13:39:53;31.20;36.20
18948;DHT22;9607;51.600;7.558;2022-07-15T13:42:20;30.50;37.30
18948;DHT22;9607;51.600;7.558;2022-07-15T13:44:47;29.90;37.80
18948;DHT22;9607;51.600;7.558;2022-07-15T13:47:15;29.40;38.80
18948;DHT22;9607;51.600;7.558;2022-07-15T13:49:42;28.70;39.20
18948;DHT22;9607;51.600;7.558;2022-07-15T13:52:27;28.10;40.40
18948;DHT22;9607;51.600;7.558;2022-07-15T13:54:53;27.30;41.30
18948;DHT22;9607;51.600;7.558;2022-07-15T13:57:20;26.70;41.30
18948;DHT22;9607;51.600;7.558;2022-07-15T13:59:47;26.10;42.20
18948;DHT22;9607;51.600;7.558;2022-07-15T14:02:16;25.70;43.20
18948;DHT22;9607;51.600;7.558;2022-07-15T14:04:43;25.20;44.20
18948;DHT22;9607;51.600;7.558;2022-07-15T14:07:09;24.90;45.60
18948;DHT22;9607;51.600;7.558;2022-07-15T14:09:36;24.70;46.10
18948;DHT22;9607;51.600;7.558;2022-07-15T14:12:06;24.50;47.50
18948;DHT22;9607;51.600;7.558;2022-07-15T14:14:33;24.40;47.00
18948;DHT22;9607;51.600;7.558;2022-07-15T14:17:00;24.30;47.20
18948;DHT22;9607;51.600;7.558;2022-07-15T14:19:28;24.00;47.70
18948;DHT22;9607;51.600;7.558;2022-07-15T14:21:55;23.90;48.30
18948;DHT22;9607;51.600;7.558;2022-07-15T14:24:22;23.90;48.70
18948;DHT22;9607;51.600;7.558;2022-07-15T14:26:49;24.00;48.60
18948;DHT22;9607;51.600;7.558;2022-07-15T14:29:16;24.20;48.90
18948;DHT22;9607;51.600;7.558;2022-07-15T14:31:43;24.30;48.10
18948;DHT22;9607;51.600;7.558;2022-07-15T14:34:10;24.30;47.50
18948;DHT22;9607;51.600;7.558;2022-07-15T14:36:39;24.30;47.50
18948;DHT22;9607;51.600;7.558;2022-07-15T14:39:06;24.30;47.40
18948;DHT22;9607;51.600;7.558;2022-07-15T14:41:34;24.20;48.30
18948;DHT22;9607;51.600;7.558;2022-07-15T14:44:02;24.10;49.40
18948;DHT22;9607;51.600;7.558;2022-07-15T14:46:29;24.00;49.50
18948;DHT22;9607;51.600;7.558;2022-07-15T14:48:56;23.90;48.60
18948;DHT22;9607;51.600;7.558;2022-07-15T14:51:22;23.90;48.80
18948;DHT22;9607;51.600;7.558;2022-07-15T14:53:51;23.90;48.60
18948;DHT22;9607;51.600;7.558;2022-07-15T14:56:17;23.90;48.30
18948;DHT22;9607;51.600;7.558;2022-07-15T14:58:44;24.10;46.90
18948;DHT22;9607;51.600;7.558;2022-07-15T15:01:11;24.40;47.60
18948;DHT22;9607;51.600;7.558;2022-07-15T15:03:38;25.00;46.80
18948;DHT22;9607;51.600;7.558;2022-07-15T15:06:05;25.90;46.20
18948;DHT22;9607;51.600;7.558;2022-07-15T15:08:32;26.70;44.50
18948;DHT22;9607;51.600;7.558;2022-07-15T15:11:00;26.80;43.50
18948;DHT22;9607;51.600;7.558;2022-07-15T15:13:27;26.80;43.50
18948;DHT22;9607;51.600;7.558;2022-07-15T15:15:54;26.40;42.50
18948;DHT22;9607;51.600;7.558;2022-07-15T15:18:21;25.90;43.90
18948;DHT22;9607;51.600;7.558;2022-07-15T15:20:48;25.70;44.00
18948;DHT22;9607;51.600;7.558;2022-07-15T15:23:15;25.50;44.60
18948;DHT22;9607;51.600;7.558;2022-07-15T15:25:42;25.10;45.10
18948;DHT22;9607;51.600;7.558;2022-07-15T15:28:28;24.70;45.40
18948;DHT22;9607;51.600;7.558;2022-07-15T15:30:55;24.50;46.30
18948;DHT22;9607;51.600;7.558;2022-07-15T15:33:22;24.40;46.40
18948;DHT22;9607;51.600;7.558;2022-07-15T15:35:49;24.40;46.50
18948;DHT22;9607;51.600;7.558;2022-07-15T15:38:16;24.30;46.80
18948;DHT22;9607;51.600;7.558;2022-07-15T15:40:43;24.10;46.80
18948;DHT22;9607;51.600;7.558;2022-07-15T15:43:09;24.00;47.00
18948;DHT22;9607;51.600;7.558;2022-07-15T15:45:40;24.10;47.30
18948;DHT22;9607;51.600;7.558;2022-07-15T15:48:07;24.20;47.40
18948;DHT22;9607;51.600;7.558;2022-07-15T15:50:33;24.20;48.40
18948;DHT22;9607;51.600;7.558;2022-07-15T15:53:00;24.10;47.20
18948;DHT22;9607;51.600;7.558;2022-07-15T15:55:27;24.30;48.10
18948;DHT22;9607;51.600;7.558;2022-07-15T15:57:54;24.30;48.30
18948;DHT22;9607;51.600;7.558;2022-07-15T16:00:21;25.00;46.70
18948;DHT22;9607;51.600;7.558;2022-07-15T16:02:49;25.40;46.20
18948;DHT22;9607;51.600;7.558;2022-07-15T16:05:16;25.50;46.00
18948;DHT22;9607;51.600;7.558;2022-07-15T16:07:43;25.30;46.30
18948;DHT22;9607;51.600;7.558;2022-07-15T16:10:10;25.40;45.90
18948;DHT22;9607;51.600;7.558;2022-07-15T16:12:37;25.30;47.00
18948;DHT22;9607;51.600;7.558;2022-07-15T16:15:05;25.20;46.20
18948;DHT22;9607;51.600;7.558;2022-07-15T16:17:31;25.30;46.50
18948;DHT22;9607;51.600;7.558;2022-07-15T16:20:00;25.50;46.50
18948;DHT22;9607;51.600;7.558;2022-07-15T16:22:27;25.90;45.20
18948;DHT22;9607;51.600;7.558;2022-07-15T16:25:11;26.10;44.20
18948;DHT22;9607;51.600;7.558;2022-07-15T16:27:38;26.70;45.10
18948;DHT22;9607;51.600;7.558;2022-07-15T16:30:06;28.10;42.70
18948;DHT22;9607;51.600;7.558;2022-07-15T16:32:33;29.10;39.80
18948;DHT22;9607;51.600;7.558;2022-07-15T16:35:02;29.20;39.20
18948;DHT22;9607;51.600;7.558;2022-07-15T16:37:29;29.10;39.00
18948;DHT22;9607;51.600;7.558;2022-07-15T16:39:56;29.00;39.70
18948;DHT22;9607;51.600;7.558;2022-07-15T16:42:23;29.30;39.60
18948;DHT22;9607;51.600;7.558;2022-07-15T16:44:50;30.40;38.80
18948;DHT22;9607;51.600;7.558;2022-07-15T16:47:16;31.90;38.00
18948;DHT22;9607;51.600;7.558;2022-07-15T16:49:43;33.00;34.80
18948;DHT22;9607;51.600;7.558;2022-07-15T16:52:11;33.50;34.40
18948;DHT22;9607;51.600;7.558;2022-07-15T16:54:39;33.50;32.70
18948;DHT22;9607;51.600;7.558;2022-07-15T16:57:06;33.60;33.30
18948;DHT22;9607;51.600;7.558;2022-07-15T16:59:33;34.10;32.90
18948;DHT22;9607;51.600;7.558;2022-07-15T17:02:00;34.80;33.30
18948;DHT22;9607;51.600;7.558;2022-07-15T17:04:27;35.80;31.90
18948;DHT22;9607;51.600;7.558;2022-07-15T17:06:54;36.30;31.20
18948;DHT22;9607;51.600;7.558;2022-07-15T17:09:22;36.30;30.20
18948;DHT22;9607;51.600;7.558;2022-07-15T17:11:49;36.20;30.30
18948;DHT22;9607;51.600;7.558;2022-07-15T17:14:16;36.30;30.00
18948;DHT22;9607;51.600;7.558;2022-07-15T17:16:43;36.40;30.10
18948;DHT22;9607;51.600;7.558;2022-07-15T17:19:10;36.60;29.80